sensor_id;sensor_type;location;lat;lon;timestamp;temperature;humidity
29813;DHT22;16707;48.106;11.548;2022-11-09T00:00:01;5.50;99.90
29813;DHT22;16707;48.106;11.548;2022-11-09T00:02:28;5.50;99.90
29813;DHT22;16707;48.106;11.548;2022-11-09T00:04:58;5.40;99.90
29813;DHT22;16707;48.106;11.548;2022-11-09T00:07:24;5.40;99.90
29813;DHT22;16707;48.106;11.548;2022-11-09T00:09:51;5.40;99.90
29813;DHT22;16707;48.106;11.548;2022-11-09T00:12:19;5.30;99.90
29813;DHT22;16707;48.106;11.548;2022-11-09T00:14:46;5.30;99.90
29813;DHT22;16707;48.106;11.548;2022-11-09T00:17:16;5.30;99.90
29813;DHT22;16707;48.106;11.548;2022-11-09T00:19:45;5.20;99.90
29813;DHT22;16707;48.106;11.548;2022-11-09T00:22:12;5.20;99.90
29813;DHT22;16707;48.106;11.548;2022-11-09T00:24:42;5.20;99.90
29813;DHT22;16707;48.106;11.548;2022-11-09T00:27:09;5.20;99.90
29813;DHT22;16707;48.106;11.548;2022-11-09T00:29:40;5.30;99.90
29813;DHT22;16707;48.106;11.548;2022-11-09T00:32:06;5.30;99.90
29813;DHT22;16707;48.106;11.548;2022-11-09T00:34:33;5.30;99.90
29813;DHT22;16707;48.106;11.548;2022-11-09T00:37:02;5.30;99.90
29813;DHT22;16707;48.106;11.548;2022-11-09T00:42:51;5.10;99.90
29813;DHT22;16707;48.106;11.548;2022-11-09T00:45:22;5.00;99.90
29813;DHT22;16707;48.106;11.548;2022-11-09T00:47:52;5.10;99.90
29813;DHT22;16707;48.106;11.548;2022-11-09T00:50:18;5.10;99.90
29813;DHT22;16707;48.106;11.548;2022-11-09T00:52:45;5.10;99.90
29813;DHT22;16707;48.106;11.548;2022-11-09T00:55:12;5.10;99.90
29813;DHT22;16707;48.106;11.548;2022-11-09T00:57:39;5.00;99.90
29813;DHT22;16707;48.106;11.548;2022-11-09T01:00:08;5.00;99.90
29813;DHT22;16707;48.106;11.548;2022-11-09T01:02:37;5.00;99.90
29813;DHT22;16707;48.106;11.548;2022-11-09T01:05:04;5.00;99.90
29813;DHT22;16707;48.106;11.548;2022-11-09T01:07:35;4.90;99.90
29813;DHT22;16707;48.106;11.548;2022-11-09T01:10:02;4.90;99.90
29813;DHT22;16707;48.106;11.548;2022-11-09T01:12:29;4.90;99.90
29813;DHT22;16707;48.106;11.548;2022-11-09T01:14:59;4.90;99.90
29813;DHT22;16707;48.106;11.548;2022-11-09T01:17:28;4.90;99.90
29813;DHT22;16707;48.106;11.548;2022-11-09T01:19:56;4.90;99.90
29813;DHT22;16707;48.106;11.548;2022-11-09T01:22:26;4.80;99.90
29813;DHT22;16707;48.106;11.548;2022-11-09T01:24:56;4.80;99.90
29813;DHT22;16707;48.106;11.548;2022-11-09T01:27:23;4.80;99.90
29813;DHT22;16707;48.106;11.548;2022-11-09T01:29:50;4.80;99.90
29813;DHT22;16707;48.106;11.548;2022-11-09T01:32:16;4.70;99.90
29813;DHT22;16707;48.106;11.548;2022-11-09T01:34:51;4.70;99.90
29813;DHT22;16707;48.106;11.548;2022-11-09T01:37:19;4.70;99.90
29813;DHT22;16707;48.106;11.548;2022-11-09T01:39:47;4.60;99.90
29813;DHT22;16707;48.106;11.548;2022-11-09T01:42:14;4.70;99.90
29813;DHT22;16707;48.106;11.548;2022-11-09T01:47:38;4.60;99.90
29813;DHT22;16707;48.106;11.548;2022-11-09T01:50:05;4.50;99.90
29813;DHT22;16707;48.106;11.548;2022-11-09T01:52:36;4.50;99.90
29813;DHT22;16707;48.106;11.548;2022-11-09T01:55:12;4.50;99.90
29813;DHT22;16707;48.106;11.548;2022-11-09T01:57:46;4.50;99.90
29813;DHT22;16707;48.106;11.548;2022-11-09T02:00:18;4.50;99.90
29813;DHT22;16707;48.106;11.548;2022-11-09T02:02:45;4.60;99.90
29813;DHT22;16707;48.106;11.548;2022-11-09T02:05:13;4.60;99.90
29813;DHT22;16707;48.106;11.548;2022-11-09T02:07:42;4.50;99.90
29813;DHT22;16707;48.106;11.548;2022-11-09T02:10:11;4.40;99.90
29813;DHT22;16707;48.106;11.548;2022-11-09T02:12:44;4.40;99.90
29813;DHT22;16707;48.106;11.548;2022-11-09T02:15:10;4.50;99.90
29813;DHT22;16707;48.106;11.548;2022-11-09T02:17:37;4.50;99.90
29813;DHT22;16707;48.106;11.548;2022-11-09T02:20:07;4.60;99.90
29813;DHT22;16707;48.106;11.548;2022-11-09T02:22:34;4.60;99.90
29813;DHT22;16707;48.106;11.548;2022-11-09T02:25:06;4.60;99.90
29813;DHT22;16707;48.106;11.548;2022-11-09T02:27:33;4.60;99.90
29813;DHT22;16707;48.106;11.548;2022-11-09T02:30:02;4.60;99.90
29813;DHT22;16707;48.106;11.548;2022-11-09T02:32:30;4.80;99.90
29813;DHT22;16707;48.106;11.548;2022-11-09T02:34:56;4.70;99.90
29813;DHT22;16707;48.106;11.548;2022-11-09T02:37:28;4.70;99.90
29813;DHT22;16707;48.106;11.548;2022-11-09T02:39:57;4.80;99.90
29813;DHT22;16707;48.106;11.548;2022-11-09T02:42:25;4.90;99.90
29813;DHT22;16707;48.106;11.548;2022-11-09T02:44:52;5.00;99.90
29813;DHT22;16707;48.106;11.548;2022-11-09T02:47:23;5.00;99.90
29813;DHT22;16707;48.106;11.548;2022-11-09T02:49:51;5.10;99.90
29813;DHT22;16707;48.106;11.548;2022-11-09T02:52:17;5.20;99.90
29813;DHT22;16707;48.106;11.548;2022-11-09T02:54:57;5.30;99.90
29813;DHT22;16707;48.106;11.548;2022-11-09T02:57:27;5.50;99.90
29813;DHT22;16707;48.106;11.548;2022-11-09T02:59:57;5.60;99.90
29813;DHT22;16707;48.106;11.548;2022-11-09T03:02:26;5.60;99.90
29813;DHT22;16707;48.106;11.548;2022-11-09T03:04:53;5.80;99.90
29813;DHT22;16707;48.106;11.548;2022-11-09T03:07:20;5.80;99.90
29813;DHT22;16707;48.106;11.548;2022-11-09T03:09:47;5.80;99.90
29813;DHT22;16707;48.106;11.548;2022-11-09T03:12:15;5.80;99.90
29813;DHT22;16707;48.106;11.548;2022-11-09T03:14:54;5.90;99.90
29813;DHT22;16707;48.106;11.548;2022-11-09T03:17:21;5.90;99.90
29813;DHT22;16707;48.106;11.548;2022-11-09T03:19:48;6.00;99.90
29813;DHT22;16707;48.106;11.548;2022-11-09T03:22:18;6.00;99.90
29813;DHT22;16707;48.106;11.548;2022-11-09T03:24:47;6.00;99.90
29813;DHT22;16707;48.106;11.548;2022-11-09T03:27:15;5.90;99.90
29813;DHT22;16707;48.106;11.548;2022-11-09T03:29:43;5.90;99.90
29813;DHT22;16707;48.106;11.548;2022-11-09T03:32:15;6.00;99.90
29813;DHT22;16707;48.106;11.548;2022-11-09T03:34:42;6.10;99.90
29813;DHT22;16707;48.106;11.548;2022-11-09T03:37:08;6.10;99.90
29813;DHT22;16707;48.106;11.548;2022-11-09T03:39:40;6.10;99.90
29813;DHT22;16707;48.106;11.548;2022-11-09T03:42:07;6.30;99.90
29813;DHT22;16707;48.106;11.548;2022-11-09T03:44:35;6.40;99.90
29813;DHT22;16707;48.106;11.548;2022-11-09T03:47:02;6.50;99.90
29813;DHT22;16707;48.106;11.548;2022-11-09T03:49:34;6.40;99.90
29813;DHT22;16707;48.106;11.548;2022-11-09T03:52:03;6.40;99.90
29813;DHT22;16707;48.106;11.548;2022-11-09T03:54:33;6.40;99.90
29813;DHT22;16707;48.106;11.548;2022-11-09T03:57:00;6.50;99.90
29813;DHT22;16707;48.106;11.548;2022-11-09T03:59:27;6.50;99.90
29813;DHT22;16707;48.106;11.548;2022-11-09T04:01:58;6.50;99.90
29813;DHT22;16707;48.106;11.548;2022-11-09T04:04:25;6.50;99.90
29813;DHT22;16707;48.106;11.548;2022-11-09T04:06:51;6.60;99.90
29813;DHT22;16707;48.106;11.548;2022-11-09T04:09:21;6.60;99.90
29813;DHT22;16707;48.106;11.548;2022-11-09T04:11:48;6.50;99.90
29813;DHT22;16707;48.106;11.548;2022-11-09T04:14:14;6.60;99.90
29813;DHT22;16707;48.106;11.548;2022-11-09T04:16:45;6.80;99.90
29813;DHT22;16707;48.106;11.548;2022-11-09T04:19:13;6.90;99.90
29813;DHT22;16707;48.106;11.548;2022-11-09T04:21:39;6.80;99.90
29813;DHT22;16707;48.106;11.548;2022-11-09T04:24:06;6.70;99.90
29813;DHT22;16707;48.106;11.548;2022-11-09T04:26:33;6.80;99.90
29813;DHT22;16707;48.106;11.548;2022-11-09T04:28:59;6.90;99.90
29813;DHT22;16707;48.106;11.548;2022-11-09T04:31:27;6.90;99.90
29813;DHT22;16707;48.106;11.548;2022-11-09T04:33:53;6.90;99.90
29813;DHT22;16707;48.106;11.548;2022-11-09T04:36:22;7.00;99.90
29813;DHT22;16707;48.106;11.548;2022-11-09T04:38:52;7.10;99.90
29813;DHT22;16707;48.106;11.548;2022-11-09T04:41:19;7.10;99.90
29813;DHT22;16707;48.106;11.548;2022-11-09T04:43:50;7.10;99.90
29813;DHT22;16707;48.106;11.548;2022-11-09T04:46:17;7.20;99.90
29813;DHT22;16707;48.106;11.548;2022-11-09T04:48:44;7.20;99.90
29813;DHT22;16707;48.106;11.548;2022-11-09T04:51:11;7.20;99.90
29813;DHT22;16707;48.106;11.548;2022-11-09T04:53:39;7.20;99.90
29813;DHT22;16707;48.106;11.548;2022-11-09T04:56:06;7.30;99.90
29813;DHT22;16707;48.106;11.548;2022-11-09T04:58:36;7.30;99.90
29813;DHT22;16707;48.106;11.548;2022-11-09T05:01:03;7.30;99.90
29813;DHT22;16707;48.106;11.548;2022-11-09T05:03:33;7.40;99.90
29813;DHT22;16707;48.106;11.548;2022-11-09T05:06:03;7.40;99.90
29813;DHT22;16707;48.106;11.548;2022-11-09T05:08:52;7.40;99.90
29813;DHT22;16707;48.106;11.548;2022-11-09T05:11:19;7.40;99.90
29813;DHT22;16707;48.106;11.548;2022-11-09T05:13:46;7.40;99.90
29813;DHT22;16707;48.106;11.548;2022-11-09T05:16:13;7.50;99.90
29813;DHT22;16707;48.106;11.548;2022-11-09T05:18:41;7.50;99.90
29813;DHT22;16707;48.106;11.548;2022-11-09T05:21:09;7.40;99.90
29813;DHT22;16707;48.106;11.548;2022-11-09T05:23:35;7.40;99.90
29813;DHT22;16707;48.106;11.548;2022-11-09T05:26:21;7.40;99.90
29813;DHT22;16707;48.106;11.548;2022-11-09T05:28:48;7.40;99.90
29813;DHT22;16707;48.106;11.548;2022-11-09T05:31:23;7.40;99.90
29813;DHT22;16707;48.106;11.548;2022-11-09T05:33:53;7.40;99.90
29813;DHT22;16707;48.106;11.548;2022-11-09T05:36:23;7.40;99.90
29813;DHT22;16707;48.106;11.548;2022-11-09T05:38:50;7.40;99.90
29813;DHT22;16707;48.106;11.548;2022-11-09T05:41:17;7.40;99.90
29813;DHT22;16707;48.106;11.548;2022-11-09T05:43:46;7.50;99.90
29813;DHT22;16707;48.106;11.548;2022-11-09T05:46:13;7.50;99.90
29813;DHT22;16707;48.106;11.548;2022-11-09T05:48:40;7.40;99.90
29813;DHT22;16707;48.106;11.548;2022-11-09T05:51:07;7.40;99.90
29813;DHT22;16707;48.106;11.548;2022-11-09T05:53:34;7.40;99.90
29813;DHT22;16707;48.106;11.548;2022-11-09T05:56:02;7.20;99.90
29813;DHT22;16707;48.106;11.548;2022-11-09T05:58:29;7.10;99.90
29813;DHT22;16707;48.106;11.548;2022-11-09T06:01:02;7.10;99.90
29813;DHT22;16707;48.106;11.548;2022-11-09T06:03:29;7.10;99.90
29813;DHT22;16707;48.106;11.548;2022-11-09T06:05:58;7.20;99.90
29813;DHT22;16707;48.106;11.548;2022-11-09T06:08:25;7.30;99.90
29813;DHT22;16707;48.106;11.548;2022-11-09T06:10:55;7.40;99.90
29813;DHT22;16707;48.106;11.548;2022-11-09T06:13:23;7.40;99.90
29813;DHT22;16707;48.106;11.548;2022-11-09T06:15:53;7.50;99.90
29813;DHT22;16707;48.106;11.548;2022-11-09T06:18:22;7.50;99.90
29813;DHT22;16707;48.106;11.548;2022-11-09T06:20:59;7.50;99.90
29813;DHT22;16707;48.106;11.548;2022-11-09T06:23:26;7.50;99.90
29813;DHT22;16707;48.106;11.548;2022-11-09T06:25:56;7.50;99.90
29813;DHT22;16707;48.106;11.548;2022-11-09T06:28:28;7.50;99.90
29813;DHT22;16707;48.106;11.548;2022-11-09T06:30:56;7.60;99.90
29813;DHT22;16707;48.106;11.548;2022-11-09T06:33:28;7.70;99.90
29813;DHT22;16707;48.106;11.548;2022-11-09T06:35:58;7.80;99.90
29813;DHT22;16707;48.106;11.548;2022-11-09T06:38:25;7.60;99.90
29813;DHT22;16707;48.106;11.548;2022-11-09T06:40:58;7.60;99.90
29813;DHT22;16707;48.106;11.548;2022-11-09T06:43:25;7.70;99.90
29813;DHT22;16707;48.106;11.548;2022-11-09T06:45:55;7.90;99.90
29813;DHT22;16707;48.106;11.548;2022-11-09T06:48:22;8.00;99.90
29813;DHT22;16707;48.106;11.548;2022-11-09T06:50:50;8.50;99.90
29813;DHT22;16707;48.106;11.548;2022-11-09T06:53:17;8.70;99.90
29813;DHT22;16707;48.106;11.548;2022-11-09T06:55:49;9.10;99.90
29813;DHT22;16707;48.106;11.548;2022-11-09T06:58:16;9.20;99.90
29813;DHT22;16707;48.106;11.548;2022-11-09T07:00:44;9.30;99.90
29813;DHT22;16707;48.106;11.548;2022-11-09T07:03:12;9.40;99.50
29813;DHT22;16707;48.106;11.548;2022-11-09T07:05:39;9.50;99.70
29813;DHT22;16707;48.106;11.548;2022-11-09T07:08:07;9.50;99.60
29813;DHT22;16707;48.106;11.548;2022-11-09T07:10:34;9.50;99.10
29813;DHT22;16707;48.106;11.548;2022-11-09T07:13:00;9.50;99.30
29813;DHT22;16707;48.106;11.548;2022-11-09T07:15:31;9.60;99.70
29813;DHT22;16707;48.106;11.548;2022-11-09T07:17:57;9.50;99.40
29813;DHT22;16707;48.106;11.548;2022-11-09T07:20:25;9.50;99.00
29813;DHT22;16707;48.106;11.548;2022-11-09T07:22:51;9.40;99.10
29813;DHT22;16707;48.106;11.548;2022-11-09T07:25:20;9.50;99.80
29813;DHT22;16707;48.106;11.548;2022-11-09T07:27:47;9.40;99.60
29813;DHT22;16707;48.106;11.548;2022-11-09T07:30:14;9.40;99.90
29813;DHT22;16707;48.106;11.548;2022-11-09T07:32:42;9.30;99.70
29813;DHT22;16707;48.106;11.548;2022-11-09T07:35:09;9.30;99.70
29813;DHT22;16707;48.106;11.548;2022-11-09T07:37:35;9.30;99.90
29813;DHT22;16707;48.106;11.548;2022-11-09T07:40:02;9.30;99.30
29813;DHT22;16707;48.106;11.548;2022-11-09T07:42:33;9.40;99.50
29813;DHT22;16707;48.106;11.548;2022-11-09T07:45:03;9.50;99.00
29813;DHT22;16707;48.106;11.548;2022-11-09T07:47:30;9.60;99.90
29813;DHT22;16707;48.106;11.548;2022-11-09T07:49:59;9.80;99.90
29813;DHT22;16707;48.106;11.548;2022-11-09T07:52:26;9.90;99.90
29813;DHT22;16707;48.106;11.548;2022-11-09T07:54:53;10.00;99.90
29813;DHT22;16707;48.106;11.548;2022-11-09T07:57:20;10.00;99.80
29813;DHT22;16707;48.106;11.548;2022-11-09T07:59:48;10.00;99.90
29813;DHT22;16707;48.106;11.548;2022-11-09T08:02:16;10.10;99.90
29813;DHT22;16707;48.106;11.548;2022-11-09T08:04:42;10.10;99.90
29813;DHT22;16707;48.106;11.548;2022-11-09T08:07:09;10.20;99.90
29813;DHT22;16707;48.106;11.548;2022-11-09T08:09:36;10.20;99.90
29813;DHT22;16707;48.106;11.548;2022-11-09T08:12:02;10.30;99.90
29813;DHT22;16707;48.106;11.548;2022-11-09T08:14:29;10.50;99.90
29813;DHT22;16707;48.106;11.548;2022-11-09T08:16:57;10.60;99.90
29813;DHT22;16707;48.106;11.548;2022-11-09T08:19:24;10.80;99.90
29813;DHT22;16707;48.106;11.548;2022-11-09T08:21:54;11.10;99.90
29813;DHT22;16707;48.106;11.548;2022-11-09T08:24:23;11.30;98.30
29813;DHT22;16707;48.106;11.548;2022-11-09T08:26:56;11.50;97.30
29813;DHT22;16707;48.106;11.548;2022-11-09T08:29:22;11.90;96.40
29813;DHT22;16707;48.106;11.548;2022-11-09T08:31:49;12.30;95.40
29813;DHT22;16707;48.106;11.548;2022-11-09T08:34:18;12.50;92.60
29813;DHT22;16707;48.106;11.548;2022-11-09T08:36:45;12.70;91.50
29813;DHT22;16707;48.106;11.548;2022-11-09T08:39:11;12.90;91.40
29813;DHT22;16707;48.106;11.548;2022-11-09T08:41:38;13.10;92.00
29813;DHT22;16707;48.106;11.548;2022-11-09T08:44:05;13.20;88.80
29813;DHT22;16707;48.106;11.548;2022-11-09T08:46:32;13.50;87.60
29813;DHT22;16707;48.106;11.548;2022-11-09T08:48:59;13.60;87.10
29813;DHT22;16707;48.106;11.548;2022-11-09T08:51:27;13.60;86.60
29813;DHT22;16707;48.106;11.548;2022-11-09T08:53:54;13.70;85.40
29813;DHT22;16707;48.106;11.548;2022-11-09T08:56:21;13.90;85.00
29813;DHT22;16707;48.106;11.548;2022-11-09T08:58:48;13.90;83.10
29813;DHT22;16707;48.106;11.548;2022-11-09T09:01:16;13.80;84.20
29813;DHT22;16707;48.106;11.548;2022-11-09T09:03:46;13.90;83.70
29813;DHT22;16707;48.106;11.548;2022-11-09T09:06:12;14.10;81.90
29813;DHT22;16707;48.106;11.548;2022-11-09T09:08:41;13.90;80.80
29813;DHT22;16707;48.106;11.548;2022-11-09T09:11:07;14.00;82.90
29813;DHT22;16707;48.106;11.548;2022-11-09T09:13:34;14.00;81.20
29813;DHT22;16707;48.106;11.548;2022-11-09T09:16:07;13.80;82.00
29813;DHT22;16707;48.106;11.548;2022-11-09T09:18:38;13.90;87.40
29813;DHT22;16707;48.106;11.548;2022-11-09T09:21:05;13.80;86.80
29813;DHT22;16707;48.106;11.548;2022-11-09T09:23:32;13.90;88.00
29813;DHT22;16707;48.106;11.548;2022-11-09T09:26:00;13.90;86.50
29813;DHT22;16707;48.106;11.548;2022-11-09T09:28:27;14.10;84.30
29813;DHT22;16707;48.106;11.548;2022-11-09T09:30:57;14.30;83.20
29813;DHT22;16707;48.106;11.548;2022-11-09T09:33:25;14.60;84.20
29813;DHT22;16707;48.106;11.548;2022-11-09T09:35:54;14.80;81.60
29813;DHT22;16707;48.106;11.548;2022-11-09T09:38:20;15.00;80.50
29813;DHT22;16707;48.106;11.548;2022-11-09T09:40:50;15.30;78.70
29813;DHT22;16707;48.106;11.548;2022-11-09T09:43:25;15.30;76.40
29813;DHT22;16707;48.106;11.548;2022-11-09T09:45:53;15.30;74.10
29813;DHT22;16707;48.106;11.548;2022-11-09T09:48:23;15.20;72.80
29813;DHT22;16707;48.106;11.548;2022-11-09T09:50:52;15.00;72.80
29813;DHT22;16707;48.106;11.548;2022-11-09T09:53:22;15.00;72.60
29813;DHT22;16707;48.106;11.548;2022-11-09T09:55:53;14.80;73.30
29813;DHT22;16707;48.106;11.548;2022-11-09T09:58:24;14.60;75.10
29813;DHT22;16707;48.106;11.548;2022-11-09T10:00:54;14.60;74.20
29813;DHT22;16707;48.106;11.548;2022-11-09T10:03:23;14.70;73.60
29813;DHT22;16707;48.106;11.548;2022-11-09T10:05:53;14.70;72.80
29813;DHT22;16707;48.106;11.548;2022-11-09T10:08:24;14.70;73.30
29813;DHT22;16707;48.106;11.548;2022-11-09T10:11:02;14.80;73.30
29813;DHT22;16707;48.106;11.548;2022-11-09T10:13:40;15.00;72.20
29813;DHT22;16707;48.106;11.548;2022-11-09T10:16:17;15.10;71.70
29813;DHT22;16707;48.106;11.548;2022-11-09T10:18:51;15.30;70.90
29813;DHT22;16707;48.106;11.548;2022-11-09T10:21:30;15.40;71.20
29813;DHT22;16707;48.106;11.548;2022-11-09T10:24:15;15.40;70.40
29813;DHT22;16707;48.106;11.548;2022-11-09T10:26:49;15.50;71.00
29813;DHT22;16707;48.106;11.548;2022-11-09T10:29:22;15.70;70.60
29813;DHT22;16707;48.106;11.548;2022-11-09T10:31:50;15.80;69.80
29813;DHT22;16707;48.106;11.548;2022-11-09T10:34:19;16.10;68.70
29813;DHT22;16707;48.106;11.548;2022-11-09T10:36:52;15.80;70.10
29813;DHT22;16707;48.106;11.548;2022-11-09T10:39:24;15.80;70.10
29813;DHT22;16707;48.106;11.548;2022-11-09T10:41:52;15.90;70.20
29813;DHT22;16707;48.106;11.548;2022-11-09T10:44:19;16.00;69.60
29813;DHT22;16707;48.106;11.548;2022-11-09T10:47:04;16.10;70.70
29813;DHT22;16707;48.106;11.548;2022-11-09T10:49:32;16.40;68.30
29813;DHT22;16707;48.106;11.548;2022-11-09T10:51:59;16.50;66.90
29813;DHT22;16707;48.106;11.548;2022-11-09T10:54:27;16.70;66.60
29813;DHT22;16707;48.106;11.548;2022-11-09T10:57:01;16.80;65.80
29813;DHT22;16707;48.106;11.548;2022-11-09T10:59:47;16.90;65.20
29813;DHT22;16707;48.106;11.548;2022-11-09T11:02:37;16.90;65.50
29813;DHT22;16707;48.106;11.548;2022-11-09T11:08:22;16.80;66.00
29813;DHT22;16707;48.106;11.548;2022-11-09T11:10:49;17.10;65.20
29813;DHT22;16707;48.106;11.548;2022-11-09T11:13:20;17.20;64.50
29813;DHT22;16707;48.106;11.548;2022-11-09T11:15:48;17.20;63.90
29813;DHT22;16707;48.106;11.548;2022-11-09T11:18:18;17.30;63.80
29813;DHT22;16707;48.106;11.548;2022-11-09T11:20:48;17.30;64.20
29813;DHT22;16707;48.106;11.548;2022-11-09T11:23:29;17.60;63.40
29813;DHT22;16707;48.106;11.548;2022-11-09T11:26:03;17.70;62.90
29813;DHT22;16707;48.106;11.548;2022-11-09T11:28:34;17.90;62.60
29813;DHT22;16707;48.106;11.548;2022-11-09T11:31:03;18.00;61.10
29813;DHT22;16707;48.106;11.548;2022-11-09T11:33:34;17.90;61.90
29813;DHT22;16707;48.106;11.548;2022-11-09T11:36:03;17.80;61.40
29813;DHT22;16707;48.106;11.548;2022-11-09T11:38:33;17.70;63.20
29813;DHT22;16707;48.106;11.548;2022-11-09T11:41:04;17.70;62.90
29813;DHT22;16707;48.106;11.548;2022-11-09T11:43:44;17.50;63.80
29813;DHT22;16707;48.106;11.548;2022-11-09T11:46:18;17.50;64.20
29813;DHT22;16707;48.106;11.548;2022-11-09T11:48:57;17.60;64.30
29813;DHT22;16707;48.106;11.548;2022-11-09T11:51:48;17.50;65.60
29813;DHT22;16707;48.106;11.548;2022-11-09T11:54:22;17.80;67.20
29813;DHT22;16707;48.106;11.548;2022-11-09T11:56:58;18.00;65.40
29813;DHT22;16707;48.106;11.548;2022-11-09T11:59:46;18.30;64.50
29813;DHT22;16707;48.106;11.548;2022-11-09T12:08:37;17.80;64.00
29813;DHT22;16707;48.106;11.548;2022-11-09T12:11:10;17.80;64.60
29813;DHT22;16707;48.106;11.548;2022-11-09T12:13:45;17.90;65.60
29813;DHT22;16707;48.106;11.548;2022-11-09T12:16:18;17.70;65.70
29813;DHT22;16707;48.106;11.548;2022-11-09T12:18:50;17.80;66.50
29813;DHT22;16707;48.106;11.548;2022-11-09T12:21:30;17.90;66.70
29813;DHT22;16707;48.106;11.548;2022-11-09T12:24:02;18.00;68.00
29813;DHT22;16707;48.106;11.548;2022-11-09T12:26:37;18.00;66.40
29813;DHT22;16707;48.106;11.548;2022-11-09T12:29:11;18.10;66.70
29813;DHT22;16707;48.106;11.548;2022-11-09T12:31:49;18.20;66.50
29813;DHT22;16707;48.106;11.548;2022-11-09T12:34:24;18.20;67.20
29813;DHT22;16707;48.106;11.548;2022-11-09T12:36:55;18.00;69.20
29813;DHT22;16707;48.106;11.548;2022-11-09T12:39:25;18.00;69.40
29813;DHT22;16707;48.106;11.548;2022-11-09T12:41:54;17.90;67.80
29813;DHT22;16707;48.106;11.548;2022-11-09T12:44:26;17.60;67.80
29813;DHT22;16707;48.106;11.548;2022-11-09T12:46:58;17.50;69.70
29813;DHT22;16707;48.106;11.548;2022-11-09T12:49:33;17.40;70.10
29813;DHT22;16707;48.106;11.548;2022-11-09T12:52:03;17.30;71.80
29813;DHT22;16707;48.106;11.548;2022-11-09T12:54:30;17.20;73.40
29813;DHT22;16707;48.106;11.548;2022-11-09T12:56:58;17.20;73.80
29813;DHT22;16707;48.106;11.548;2022-11-09T12:59:34;17.20;72.40
29813;DHT22;16707;48.106;11.548;2022-11-09T13:02:02;17.20;71.80
29813;DHT22;16707;48.106;11.548;2022-11-09T13:04:30;17.20;72.60
29813;DHT22;16707;48.106;11.548;2022-11-09T13:07:18;17.20;73.60
29813;DHT22;16707;48.106;11.548;2022-11-09T13:09:52;17.30;72.10
29813;DHT22;16707;48.106;11.548;2022-11-09T13:12:25;17.40;71.30
29813;DHT22;16707;48.106;11.548;2022-11-09T13:14:53;17.40;72.70
29813;DHT22;16707;48.106;11.548;2022-11-09T13:20:42;17.40;71.60
29813;DHT22;16707;48.106;11.548;2022-11-09T13:26:00;17.40;72.70
29813;DHT22;16707;48.106;11.548;2022-11-09T13:28:43;17.50;71.70
29813;DHT22;16707;48.106;11.548;2022-11-09T13:31:10;17.60;71.40
29813;DHT22;16707;48.106;11.548;2022-11-09T13:33:37;17.60;70.50
29813;DHT22;16707;48.106;11.548;2022-11-09T13:41:51;17.80;69.40
29813;DHT22;16707;48.106;11.548;2022-11-09T13:44:22;17.70;69.70
29813;DHT22;16707;48.106;11.548;2022-11-09T13:46:50;17.70;69.90
29813;DHT22;16707;48.106;11.548;2022-11-09T13:55:16;17.40;70.60
29813;DHT22;16707;48.106;11.548;2022-11-09T13:57:48;17.30;70.40
29813;DHT22;16707;48.106;11.548;2022-11-09T14:00:18;17.30;71.00
29813;DHT22;16707;48.106;11.548;2022-11-09T14:02:53;17.30;73.80
29813;DHT22;16707;48.106;11.548;2022-11-09T14:05:22;17.20;71.50
29813;DHT22;16707;48.106;11.548;2022-11-09T14:07:52;17.20;72.40
29813;DHT22;16707;48.106;11.548;2022-11-09T14:10:22;17.20;71.00
29813;DHT22;16707;48.106;11.548;2022-11-09T14:13:02;17.00;71.40
29813;DHT22;16707;48.106;11.548;2022-11-09T14:15:33;17.00;72.00
29813;DHT22;16707;48.106;11.548;2022-11-09T14:18:09;17.00;72.70
29813;DHT22;16707;48.106;11.548;2022-11-09T14:20:46;17.00;73.30
29813;DHT22;16707;48.106;11.548;2022-11-09T14:23:16;17.10;74.20
29813;DHT22;16707;48.106;11.548;2022-11-09T14:25:44;17.00;74.70
29813;DHT22;16707;48.106;11.548;2022-11-09T14:28:19;16.90;75.00
29813;DHT22;16707;48.106;11.548;2022-11-09T14:30:47;16.80;76.00
29813;DHT22;16707;48.106;11.548;2022-11-09T14:33:19;16.60;76.90
29813;DHT22;16707;48.106;11.548;2022-11-09T14:35:49;16.40;78.10
29813;DHT22;16707;48.106;11.548;2022-11-09T14:38:17;16.30;77.70
29813;DHT22;16707;48.106;11.548;2022-11-09T14:40:45;16.30;78.50
29813;DHT22;16707;48.106;11.548;2022-11-09T14:43:18;16.20;80.00
29813;DHT22;16707;48.106;11.548;2022-11-09T14:45:53;16.20;79.60
29813;DHT22;16707;48.106;11.548;2022-11-09T14:48:22;16.10;79.40
29813;DHT22;16707;48.106;11.548;2022-11-09T14:50:49;16.00;80.80
29813;DHT22;16707;48.106;11.548;2022-11-09T14:53:18;16.00;79.30
29813;DHT22;16707;48.106;11.548;2022-11-09T14:55:47;16.00;80.40
29813;DHT22;16707;48.106;11.548;2022-11-09T14:58:21;15.90;82.30
29813;DHT22;16707;48.106;11.548;2022-11-09T15:01:04;15.80;82.00
29813;DHT22;16707;48.106;11.548;2022-11-09T15:03:32;15.80;81.20
29813;DHT22;16707;48.106;11.548;2022-11-09T15:06:03;15.70;81.00
29813;DHT22;16707;48.106;11.548;2022-11-09T15:08:31;15.60;82.70
29813;DHT22;16707;48.106;11.548;2022-11-09T15:10:59;15.50;85.20
29813;DHT22;16707;48.106;11.548;2022-11-09T15:13:28;15.40;84.00
29813;DHT22;16707;48.106;11.548;2022-11-09T15:15:57;15.30;86.00
29813;DHT22;16707;48.106;11.548;2022-11-09T15:18:25;15.20;86.80
29813;DHT22;16707;48.106;11.548;2022-11-09T15:21:08;15.20;88.30
29813;DHT22;16707;48.106;11.548;2022-11-09T15:23:38;15.00;91.60
29813;DHT22;16707;48.106;11.548;2022-11-09T15:26:10;14.90;91.70
29813;DHT22;16707;48.106;11.548;2022-11-09T15:28:51;14.80;91.60
29813;DHT22;16707;48.106;11.548;2022-11-09T15:31:18;14.70;92.00
29813;DHT22;16707;48.106;11.548;2022-11-09T15:33:48;14.50;92.10
29813;DHT22;16707;48.106;11.548;2022-11-09T15:36:22;14.40;93.00
29813;DHT22;16707;48.106;11.548;2022-11-09T15:38:56;14.30;94.20
29813;DHT22;16707;48.106;11.548;2022-11-09T15:41:27;14.20;95.60
29813;DHT22;16707;48.106;11.548;2022-11-09T15:43:59;14.10;96.20
29813;DHT22;16707;48.106;11.548;2022-11-09T15:46:26;14.00;96.00
29813;DHT22;16707;48.106;11.548;2022-11-09T15:48:58;13.90;97.30
29813;DHT22;16707;48.106;11.548;2022-11-09T15:51:31;13.90;97.10
29813;DHT22;16707;48.106;11.548;2022-11-09T15:53:58;13.80;97.50
29813;DHT22;16707;48.106;11.548;2022-11-09T15:56:25;13.70;98.20
29813;DHT22;16707;48.106;11.548;2022-11-09T15:58:52;13.60;98.60
29813;DHT22;16707;48.106;11.548;2022-11-09T16:01:20;13.60;99.20
29813;DHT22;16707;48.106;11.548;2022-11-09T16:03:47;13.50;99.90
29813;DHT22;16707;48.106;11.548;2022-11-09T16:06:15;13.40;99.90
29813;DHT22;16707;48.106;11.548;2022-11-09T16:08:45;13.50;99.90
29813;DHT22;16707;48.106;11.548;2022-11-09T16:11:12;13.50;99.90